createdAt,value
2022-08-10T00:01:31.932Z,20.70
2022-08-10T00:03:58.860Z,20.69
2022-08-10T00:06:25.789Z,20.68
2022-08-10T00:08:54.651Z,20.65
2022-08-10T00:11:21.588Z,20.63
2022-08-10T00:13:48.526Z,20.58
2022-08-10T00:16:15.629Z,20.58
2022-08-10T00:18:42.925Z,20.57
2022-08-10T00:21:10.682Z,20.51
2022-08-10T00:23:38.339Z,20.46
2022-08-10T00:26:06.174Z,20.43
2022-08-10T00:28:33.428Z,20.40
2022-08-10T00:31:00.536Z,20.37
2022-08-10T00:33:27.487Z,20.29
2022-08-10T00:35:54.436Z,20.23
2022-08-10T00:38:21.327Z,20.14
2022-08-10T00:40:48.242Z,20.10
2022-08-10T00:43:15.163Z,20.08
2022-08-10T00:45:59.874Z,20.07
2022-08-10T00:48:29.723Z,20.07
2022-08-10T00:50:58.989Z,20.07
2022-08-10T00:53:28.403Z,20.06
2022-08-10T00:57:12.603Z,20.05
2022-08-10T00:58:43.332Z,20.03
2022-08-10T01:01:23.572Z,20.00
2022-08-10T01:04:58.090Z,19.99
2022-08-10T01:07:05.527Z,19.96
2022-08-10T01:09:44.343Z,19.95
2022-08-10T01:12:40.421Z,19.92
2022-08-10T01:15:29.963Z,19.90
2022-08-10T01:18:26.901Z,19.87
2022-08-10T01:21:53.898Z,19.82
2022-08-10T01:25:04.167Z,19.78
2022-08-10T01:27:59.524Z,19.76
2022-08-10T01:30:30.157Z,19.73
2022-08-10T01:33:12.120Z,19.71
2022-08-10T01:35:55.384Z,19.70
2022-08-10T01:38:34.633Z,19.67
2022-08-10T01:41:14.260Z,19.65
2022-08-10T01:43:50.420Z,19.61
2022-08-10T01:46:19.363Z,19.60
2022-08-10T01:48:53.749Z,19.52
2022-08-10T01:51:26.991Z,19.43
2022-08-10T01:54:02.577Z,19.35
2022-08-10T01:56:34.251Z,19.31
2022-08-10T01:59:19.517Z,19.26
2022-08-10T02:01:51.842Z,19.21
2022-08-10T02:04:21.013Z,19.19
2022-08-10T02:06:51.808Z,19.17
2022-08-10T02:09:26.855Z,19.12
2022-08-10T02:12:07.208Z,19.04
2022-08-10T02:14:43.583Z,18.93
2022-08-10T02:17:59.219Z,18.89
2022-08-10T02:20:18.914Z,18.77
2022-08-10T02:22:52.709Z,18.72
2022-08-10T02:25:41.476Z,18.69
2022-08-10T02:28:11.451Z,18.69
2022-08-10T02:30:39.265Z,18.68
2022-08-10T02:33:09.379Z,18.74
2022-08-10T02:35:55.428Z,18.74
2022-08-10T02:38:59.236Z,18.76
2022-08-10T02:45:15.100Z,18.76
2022-08-10T02:45:29.154Z,18.72
2022-08-10T02:47:51.431Z,18.68
2022-08-10T02:50:36.963Z,18.66
2022-08-10T02:53:54.755Z,18.64
2022-08-10T02:56:30.346Z,18.62
2022-08-10T02:59:03.728Z,18.61
2022-08-10T03:01:42.223Z,18.61
2022-08-10T03:04:55.185Z,18.61
2022-08-10T03:07:12.223Z,18.58
2022-08-10T03:09:41.280Z,18.58
2022-08-10T03:12:37.479Z,18.56
2022-08-10T03:14:59.905Z,18.54
2022-08-10T03:17:28.883Z,18.53
2022-08-10T03:20:33.864Z,18.52
2022-08-10T03:22:46.261Z,18.49
2022-08-10T03:25:13.969Z,18.46
2022-08-10T03:27:42.692Z,18.43
2022-08-10T03:30:29.722Z,18.41
2022-08-10T03:32:59.050Z,18.35
2022-08-10T03:35:27.201Z,18.35
2022-08-10T03:37:59.080Z,18.35
2022-08-10T03:40:45.362Z,18.33
2022-08-10T03:43:17.824Z,18.29
2022-08-10T03:45:55.684Z,18.28
2022-08-10T03:48:44.575Z,18.21
2022-08-10T03:51:18.922Z,18.17
2022-08-10T03:54:03.022Z,18.16
2022-08-10T03:56:38.408Z,18.12
2022-08-10T03:59:11.924Z,18.01
2022-08-10T04:02:46.397Z,17.89
2022-08-10T04:04:26.788Z,17.78
2022-08-10T04:06:58.377Z,17.78
2022-08-10T04:09:53.246Z,17.81
2022-08-10T04:12:21.600Z,17.92
2022-08-10T04:14:51.249Z,18.12
2022-08-10T04:17:56.846Z,18.21
2022-08-10T04:20:41.032Z,18.26
2022-08-10T04:23:14.025Z,18.25
2022-08-10T04:25:41.570Z,18.19
2022-08-10T04:28:10.636Z,18.11
2022-08-10T04:30:39.383Z,18.01
2022-08-10T04:33:08.907Z,17.96
2022-08-10T04:35:36.506Z,17.97
2022-08-10T04:38:04.675Z,17.93
2022-08-10T04:40:31.920Z,17.83
2022-08-10T04:43:11.912Z,17.74
2022-08-10T04:45:49.406Z,17.69
2022-08-10T04:48:42.424Z,17.69
2022-08-10T04:51:17.776Z,17.73
2022-08-10T04:54:03.748Z,17.84
2022-08-10T04:56:34.212Z,17.94
2022-08-10T04:59:01.259Z,18.05
2022-08-10T05:02:21.176Z,18.08
2022-08-10T05:04:36.816Z,18.22
2022-08-10T05:07:05.395Z,18.23
2022-08-10T05:09:32.360Z,18.19
2022-08-10T05:11:59.292Z,18.15
2022-08-10T05:14:26.183Z,18.16
2022-08-10T05:16:53.115Z,18.20
2022-08-10T05:20:01.649Z,18.28
2022-08-10T05:22:08.595Z,18.34
2022-08-10T05:24:35.514Z,18.46
2022-08-10T05:27:10.273Z,18.52
2022-08-10T05:29:38.318Z,18.56
2022-08-10T05:32:05.705Z,18.58
2022-08-10T05:34:32.733Z,18.61
2022-08-10T05:37:00.750Z,18.65
2022-08-10T05:39:30.469Z,18.68
2022-08-10T05:42:01.910Z,18.75
2022-08-10T05:44:29.751Z,18.91
2022-08-10T05:46:56.987Z,19.00
2022-08-10T05:49:24.556Z,19.09
2022-08-10T05:51:52.146Z,19.20
2022-08-10T05:54:19.814Z,19.31
2022-08-10T05:56:56.057Z,19.41
2022-08-10T06:00:10.925Z,19.51
2022-08-10T06:02:37.177Z,19.63
2022-08-10T06:05:14.223Z,19.74
2022-08-10T06:07:48.439Z,19.84
2022-08-10T06:10:31.107Z,19.94
2022-08-10T06:13:30.996Z,20.06
2022-08-10T06:16:06.444Z,20.19
2022-08-10T06:18:35.070Z,20.29
2022-08-10T06:21:02.149Z,20.41
2022-08-10T06:23:30.736Z,20.48
2022-08-10T06:26:10.629Z,20.65
2022-08-10T06:29:02.756Z,20.77
2022-08-10T06:31:47.905Z,20.90
2022-08-10T06:34:22.854Z,20.92
2022-08-10T06:36:50.554Z,20.96
2022-08-10T06:39:33.146Z,21.06
2022-08-10T06:42:28.421Z,21.12
2022-08-10T06:45:00.757Z,21.19
2022-08-10T06:47:41.485Z,21.24
2022-08-10T06:50:44.627Z,21.33
2022-08-10T06:53:17.624Z,21.46
2022-08-10T06:55:56.728Z,21.59
2022-08-10T06:58:28.248Z,21.66
2022-08-10T07:00:56.935Z,21.84
2022-08-10T07:03:33.548Z,21.92
2022-08-10T07:06:01.729Z,22.04
2022-08-10T07:08:33.015Z,22.16
2022-08-10T07:11:02.370Z,22.34
2022-08-10T07:14:16.083Z,22.50
2022-08-10T07:16:19.263Z,22.67
2022-08-10T07:18:48.428Z,22.79
2022-08-10T07:21:17.931Z,22.98
2022-08-10T07:23:57.054Z,23.12
2022-08-10T07:26:29.091Z,23.25
2022-08-10T07:28:57.028Z,23.38
2022-08-10T07:31:54.787Z,23.51
2022-08-10T07:34:24.703Z,23.61
2022-08-10T07:37:02.988Z,23.76
2022-08-10T07:40:02.305Z,23.87
2022-08-10T07:42:31.957Z,23.97
2022-08-10T07:44:59.581Z,24.07
2022-08-10T07:47:52.905Z,24.17
2022-08-10T07:50:27.241Z,24.26
2022-08-10T07:53:01.711Z,24.41
2022-08-10T07:56:04.051Z,24.54
2022-08-10T07:58:22.823Z,24.62
2022-08-10T08:00:52.337Z,24.72
2022-08-10T08:03:25.013Z,24.80
2022-08-10T08:05:58.988Z,24.88
2022-08-10T08:08:33.026Z,24.97
2022-08-10T08:11:00.849Z,25.05
2022-08-10T08:13:29.519Z,25.11
2022-08-10T08:16:19.923Z,25.16
2022-08-10T08:19:16.355Z,25.18
2022-08-10T08:24:09.712Z,25.21
2022-08-10T08:24:33.405Z,25.28
2022-08-10T08:27:05.427Z,25.37
2022-08-10T08:29:35.893Z,25.45
2022-08-10T08:32:04.941Z,25.53
2022-08-10T08:34:39.752Z,25.56
2022-08-10T08:37:10.344Z,25.59
2022-08-10T08:39:38.002Z,25.60
2022-08-10T08:42:48.587Z,25.61
2022-08-10T08:46:00.582Z,25.70
2022-08-10T08:49:06.463Z,25.74
2022-08-10T08:52:12.416Z,25.85
2022-08-10T08:56:02.968Z,25.97
2022-08-10T08:58:20.941Z,26.07
2022-08-10T09:01:15.876Z,26.12
2022-08-10T09:04:02.742Z,26.15
2022-08-10T09:07:59.355Z,26.25
2022-08-10T09:10:24.223Z,26.32
2022-08-10T09:13:01.692Z,26.35
2022-08-10T09:16:00.048Z,26.42
2022-08-10T09:18:53.597Z,26.52
2022-08-10T09:21:58.800Z,26.63
2022-08-10T09:25:09.219Z,26.70
2022-08-10T09:28:03.719Z,26.80
2022-08-10T09:36:24.759Z,26.91
2022-08-10T09:37:20.737Z,27.01
2022-08-10T09:40:06.586Z,27.12
2022-08-10T09:43:24.931Z,27.24
2022-08-10T09:46:33.287Z,27.35
2022-08-10T09:49:17.403Z,27.40
2022-08-10T09:51:51.273Z,27.42
2022-08-10T09:54:42.204Z,27.41
2022-08-10T09:57:44.725Z,27.46
2022-08-10T10:00:13.031Z,27.50
2022-08-10T10:03:22.798Z,27.50
2022-08-10T10:06:09.954Z,27.54
2022-08-10T10:09:10.132Z,27.72
2022-08-10T10:12:09.860Z,27.88
2022-08-10T10:15:10.870Z,27.96
2022-08-10T10:18:07.864Z,28.01
2022-08-10T10:21:08.806Z,28.08
2022-08-10T10:24:24.994Z,28.09
2022-08-10T10:27:16.261Z,28.20
2022-08-10T10:29:59.286Z,28.31
2022-08-10T10:32:57.889Z,28.43
2022-08-10T10:35:40.674Z,28.46
2022-08-10T10:38:12.124Z,28.48
2022-08-10T10:40:46.499Z,28.52
2022-08-10T10:43:45.408Z,28.53
2022-08-10T10:46:45.516Z,28.60
2022-08-10T10:49:47.462Z,28.61
2022-08-10T10:53:09.059Z,28.72
2022-08-10T10:56:14.357Z,28.81
2022-08-10T10:59:56.043Z,28.90
2022-08-10T11:03:10.858Z,28.96
2022-08-10T11:05:40.418Z,29.11
2022-08-10T11:08:18.399Z,29.18
2022-08-10T11:12:01.372Z,29.26
2022-08-10T11:14:35.508Z,29.23
2022-08-10T11:17:27.201Z,29.25
2022-08-10T11:20:12.245Z,29.40
2022-08-10T11:23:11.692Z,29.51
2022-08-10T11:25:48.308Z,29.66
2022-08-10T11:28:20.587Z,29.73
2022-08-10T11:31:07.363Z,29.81
2022-08-10T11:34:03.953Z,29.94
2022-08-10T11:36:46.661Z,30.12
2022-08-10T11:39:51.664Z,30.30
2022-08-10T11:42:43.279Z,30.47
2022-08-10T11:45:18.315Z,30.61
2022-08-10T11:47:57.441Z,30.77
2022-08-10T11:50:31.672Z,30.87
2022-08-10T11:53:17.913Z,30.94
2022-08-10T11:55:50.408Z,30.97
2022-08-10T11:58:40.629Z,30.98
2022-08-10T12:01:13.843Z,31.01
2022-08-10T12:03:42.977Z,31.03
2022-08-10T12:06:21.549Z,30.98
2022-08-10T12:10:04.796Z,31.02
2022-08-10T12:11:50.356Z,31.04
2022-08-10T12:14:29.599Z,30.97
2022-08-10T12:17:11.546Z,30.87
2022-08-10T12:19:59.354Z,30.85
2022-08-10T12:22:56.822Z,30.78
2022-08-10T12:25:57.183Z,30.75
2022-08-10T12:28:51.520Z,30.70
2022-08-10T12:31:32.533Z,30.76
2022-08-10T12:34:11.657Z,30.85
2022-08-10T12:36:44.762Z,30.94
2022-08-10T12:39:19.975Z,31.02
2022-08-10T12:41:56.932Z,31.08
2022-08-10T12:44:53.400Z,31.17
2022-08-10T12:47:41.175Z,31.22
2022-08-10T12:50:33.386Z,31.29
2022-08-10T12:53:14.988Z,31.36
2022-08-10T12:55:42.714Z,31.48
2022-08-10T12:58:58.067Z,31.53
2022-08-10T13:01:21.348Z,31.58
2022-08-10T13:04:23.518Z,31.60
2022-08-10T13:06:46.293Z,31.53
2022-08-10T13:09:14.948Z,31.51
2022-08-10T13:12:39.148Z,31.58
2022-08-10T13:15:43.293Z,31.63
2022-08-10T13:18:03.724Z,31.66
2022-08-10T13:20:36.019Z,31.63
2022-08-10T13:23:13.270Z,31.58
2022-08-10T13:25:48.667Z,31.68
2022-08-10T13:28:37.248Z,31.77
2022-08-10T13:31:17.034Z,31.75
2022-08-10T13:34:40.881Z,31.62
2022-08-10T13:36:50.807Z,31.54
2022-08-10T13:39:24.105Z,31.48
2022-08-10T13:41:54.703Z,31.37
2022-08-10T13:44:38.244Z,31.28
2022-08-10T13:47:06.927Z,31.10
2022-08-10T13:49:49.591Z,31.02
2022-08-10T13:52:22.557Z,30.97
2022-08-10T13:54:52.085Z,30.97
2022-08-10T13:57:34.885Z,30.96
2022-08-10T14:00:37.303Z,31.01
2022-08-10T14:03:02.979Z,31.11
2022-08-10T14:05:34.345Z,31.16
2022-08-10T14:08:03.491Z,31.21
2022-08-10T14:11:08.644Z,31.25
2022-08-10T14:13:28.105Z,31.17
2022-08-10T14:15:57.456Z,31.09
2022-08-10T14:18:25.730Z,30.94
2022-08-10T14:20:54.373Z,30.79
2022-08-10T14:23:21.544Z,30.63
2022-08-10T14:26:08.753Z,30.49
2022-08-10T14:28:48.001Z,30.45
2022-08-10T14:31:22.005Z,30.54
2022-08-10T14:33:54.648Z,30.63
2022-08-10T14:36:54.636Z,30.76
2022-08-10T14:39:59.064Z,30.85
2022-08-10T14:42:54.527Z,30.87
2022-08-10T14:45:32.103Z,30.88
2022-08-10T14:48:11.431Z,30.95
2022-08-10T14:50:55.302Z,30.96
2022-08-10T14:53:29.790Z,30.95
2022-08-10T14:56:14.744Z,30.98
2022-08-10T14:59:07.030Z,30.85
2022-08-10T15:02:38.492Z,30.81
2022-08-10T15:04:29.376Z,30.82
2022-08-10T15:07:04.185Z,30.87
2022-08-10T15:10:01.114Z,30.90
2022-08-10T15:12:38.401Z,30.87
2022-08-10T15:15:10.105Z,30.84
2022-08-10T15:17:43.086Z,30.73
2022-08-10T15:20:21.576Z,30.63
2022-08-10T15:22:53.023Z,30.60
2022-08-10T15:25:24.636Z,30.65
2022-08-10T15:28:05.522Z,30.72
2022-08-10T15:30:49.024Z,30.80
2022-08-10T15:34:00.247Z,30.73
2022-08-10T15:36:46.407Z,30.59
2022-08-10T15:40:21.305Z,30.58
2022-08-10T15:43:24.403Z,30.52
2022-08-10T15:46:30.164Z,30.48
2022-08-10T15:49:02.608Z,30.41
2022-08-10T15:51:52.771Z,30.30
2022-08-10T15:54:33.276Z,30.17
2022-08-10T15:57:11.823Z,30.11
2022-08-10T15:59:47.678Z,30.09
2022-08-10T16:02:25.410Z,30.19
2022-08-10T16:05:11.677Z,30.28
2022-08-10T16:07:49.163Z,30.25
2022-08-10T16:10:28.943Z,30.19
2022-08-10T16:13:51.113Z,30.03
2022-08-10T16:16:01.904Z,30.05
2022-08-10T16:18:32.519Z,30.08
2022-08-10T16:21:03.495Z,30.08
2022-08-10T16:23:39.110Z,30.13
2022-08-10T16:26:14.798Z,30.15
2022-08-10T16:28:51.813Z,30.14
2022-08-10T16:31:26.635Z,30.17
2022-08-10T16:33:57.840Z,30.15
2022-08-10T16:36:49.813Z,30.05
2022-08-10T16:39:57.862Z,29.94
2022-08-10T16:42:36.184Z,30.02
2022-08-10T16:45:11.069Z,30.06
2022-08-10T16:47:50.939Z,30.07
2022-08-10T16:50:26.848Z,30.14
2022-08-10T16:52:57.202Z,30.21
2022-08-10T16:55:48.376Z,30.26
2022-08-10T16:58:15.680Z,30.36
2022-08-10T17:00:45.722Z,30.44
2022-08-10T17:04:04.609Z,30.41
2022-08-10T17:06:11.922Z,30.40
2022-08-10T17:08:48.735Z,30.36
2022-08-10T17:11:18.866Z,30.35
2022-08-10T17:13:46.539Z,30.38
2022-08-10T17:16:16.935Z,30.40
2022-08-10T17:18:46.766Z,30.50
2022-08-10T17:21:23.077Z,30.56
2022-08-10T17:23:54.310Z,30.66
2022-08-10T17:26:35.994Z,30.63
2022-08-10T17:29:53.320Z,30.68
2022-08-10T17:32:28.212Z,30.60
2022-08-10T17:35:01.811Z,30.54
2022-08-10T17:37:35.469Z,30.35
2022-08-10T17:40:24.621Z,30.09
2022-08-10T17:42:54.327Z,29.97
2022-08-10T17:45:47.502Z,29.82
2022-08-10T17:48:25.977Z,29.68
2022-08-10T17:50:54.235Z,29.56
2022-08-10T17:53:39.451Z,29.39
2022-08-10T17:56:08.223Z,29.28
2022-08-10T17:58:37.710Z,29.10
2022-08-10T18:01:38.308Z,28.88
2022-08-10T18:03:58.761Z,28.68
2022-08-10T18:06:27.738Z,28.61
2022-08-10T18:09:11.984Z,28.42
2022-08-10T18:11:47.986Z,28.26
2022-08-10T18:14:17.059Z,28.09
2022-08-10T18:16:45.657Z,27.99
2022-08-10T18:19:15.184Z,27.87
2022-08-10T18:21:46.428Z,27.84
2022-08-10T18:24:18.162Z,27.76
2022-08-10T18:26:49.005Z,27.69
2022-08-10T18:29:28.280Z,27.60
2022-08-10T18:32:00.513Z,27.52
2022-08-10T18:34:32.113Z,27.41
2022-08-10T18:37:00.086Z,27.28
2022-08-10T18:39:32.792Z,27.07
2022-08-10T18:42:11.630Z,26.85
2022-08-10T18:44:44.893Z,26.75
2022-08-10T18:47:56.059Z,26.65
2022-08-10T18:50:40.724Z,26.53
2022-08-10T18:53:30.423Z,26.40
2022-08-10T18:56:31.261Z,26.39
2022-08-10T19:00:07.467Z,26.37
2022-08-10T19:02:39.733Z,26.20
2022-08-10T19:05:48.560Z,26.08
2022-08-10T19:08:49.156Z,26.02
2022-08-10T19:11:54.711Z,25.92
2022-08-10T19:14:57.386Z,25.88
2022-08-10T19:17:59.148Z,25.86
2022-08-10T19:20:35.374Z,25.83
2022-08-10T19:23:09.526Z,25.81
2022-08-10T19:26:40.883Z,25.81
2022-08-10T19:30:07.954Z,25.73
2022-08-10T19:32:39.688Z,25.64
2022-08-10T19:36:03.735Z,25.55
2022-08-10T19:39:28.847Z,25.42
2022-08-10T19:42:11.688Z,25.26
2022-08-10T19:45:59.127Z,25.18
2022-08-10T19:48:18.875Z,25.05
2022-08-10T19:50:58.245Z,24.92
2022-08-10T19:54:02.008Z,24.81
2022-08-10T19:57:17.864Z,24.74
2022-08-10T20:00:18.042Z,24.78
2022-08-10T20:03:34.211Z,24.78
2022-08-10T20:06:20.397Z,24.79
2022-08-10T20:09:18.458Z,24.83
2022-08-10T20:12:01.377Z,24.87
2022-08-10T20:14:52.918Z,24.91
2022-08-10T20:17:51.361Z,24.94
2022-08-10T20:20:30.441Z,24.95
2022-08-10T20:23:05.788Z,24.97
2022-08-10T20:25:33.659Z,25.00
2022-08-10T20:28:20.990Z,24.96
2022-08-10T20:31:01.603Z,24.94
2022-08-10T20:33:38.482Z,24.93
2022-08-10T20:36:21.962Z,24.92
2022-08-10T20:39:13.801Z,24.91
2022-08-10T20:42:22.110Z,24.90
2022-08-10T20:45:08.360Z,24.87
2022-08-10T20:47:54.442Z,24.85
2022-08-10T20:50:50.445Z,24.79
2022-08-10T20:53:23.176Z,24.76
2022-08-10T20:56:12.685Z,24.70
2022-08-10T20:59:08.950Z,24.66
2022-08-10T21:02:13.496Z,24.60
2022-08-10T21:04:48.880Z,24.57
2022-08-10T21:07:57.856Z,24.55
2022-08-10T21:10:38.894Z,24.50
2022-08-10T21:13:36.697Z,24.45
2022-08-10T21:16:34.811Z,24.40
2022-08-10T21:19:27.625Z,24.36
2022-08-10T21:22:17.320Z,24.32
2022-08-10T21:25:01.882Z,24.24
2022-08-10T21:28:29.217Z,24.15
2022-08-10T21:31:37.445Z,24.09
2022-08-10T21:34:54.233Z,24.04
2022-08-10T21:38:05.445Z,23.99
2022-08-10T21:41:18.373Z,23.96
2022-08-10T21:44:14.013Z,23.91
2022-08-10T21:47:38.031Z,23.84
2022-08-10T21:50:29.857Z,23.82
2022-08-10T21:53:48.359Z,23.73
2022-08-10T21:56:47.945Z,23.58
2022-08-10T22:02:59.475Z,23.44
2022-08-10T22:05:54.932Z,23.39
2022-08-10T22:09:07.244Z,23.35
2022-08-10T22:12:01.500Z,23.29
2022-08-10T22:14:57.404Z,23.23
2022-08-10T22:17:59.704Z,23.20
2022-08-10T22:20:56.197Z,23.06
2022-08-10T22:23:41.755Z,23.01
2022-08-10T22:26:36.583Z,22.91
2022-08-10T22:29:42.413Z,22.86
2022-08-10T22:31:26.831Z,23.51
2022-08-10T22:33:06.012Z,22.85
2022-08-10T22:36:39.881Z,22.81
2022-08-10T22:40:11.821Z,22.78
2022-08-10T22:42:59.422Z,22.74
2022-08-10T22:46:05.730Z,22.72
2022-08-10T22:49:02.495Z,22.69
2022-08-10T22:51:51.951Z,22.64
2022-08-10T22:55:07.102Z,22.60
2022-08-10T22:57:52.903Z,22.57
2022-08-10T23:00:31.445Z,22.55
2022-08-10T23:03:22.437Z,22.50
2022-08-10T23:05:58.851Z,22.47
2022-08-10T23:08:45.387Z,22.44
2022-08-10T23:11:30.300Z,22.40
2022-08-10T23:14:03.735Z,22.38
2022-08-10T23:17:02.525Z,22.36
2022-08-10T23:19:33.123Z,22.31
2022-08-10T23:22:10.379Z,22.28
2022-08-10T23:24:51.978Z,22.25
2022-08-10T23:27:38.966Z,22.21
2022-08-10T23:30:16.279Z,22.18
2022-08-10T23:32:59.357Z,22.13
2022-08-10T23:36:30.826Z,22.10
2022-08-10T23:38:22.075Z,22.05
2022-08-10T23:40:53.493Z,22.00
2022-08-10T23:44:00.433Z,21.99
2022-08-10T23:46:24.278Z,21.94
2022-08-10T23:48:55.177Z,21.94
2022-08-10T23:51:54.736Z,21.90
2022-08-10T23:54:24.181Z,21.87
2022-08-10T23:56:54.608Z,21.85
2022-08-10T23:59:23.857Z,21.83
